sensor_id;sensor_type;location;lat;lon;timestamp;pressure;altitude;pressure_sealevel;temperature;humidity
13011;BME280;6786;57.632;11.962;2022-11-21T00:01:15;99659.75;;;19.84;38.80
13011;BME280;6786;57.632;11.962;2022-11-21T00:03:44;99665.09;;;19.84;38.86
13011;BME280;6786;57.632;11.962;2022-11-21T00:06:14;99648.00;;;19.85;38.86
13011;BME280;6786;57.632;11.962;2022-11-21T00:08:43;99652.56;;;19.85;38.89
13011;BME280;6786;57.632;11.962;2022-11-21T00:11:11;99648.34;;;19.82;38.97
13011;BME280;6786;57.632;11.962;2022-11-21T00:13:40;99646.34;;;19.84;38.89
13011;BME280;6786;57.632;11.962;2022-11-21T00:16:10;99640.28;;;19.82;38.87
13011;BME280;6786;57.632;11.962;2022-11-21T00:18:39;99638.28;;;19.84;38.97
13011;BME280;6786;57.632;11.962;2022-11-21T00:21:11;99626.72;;;19.84;38.99
13011;BME280;6786;57.632;11.962;2022-11-21T00:23:41;99627.56;;;19.84;38.96
13011;BME280;6786;57.632;11.962;2022-11-21T00:26:10;99626.56;;;19.85;38.81
13011;BME280;6786;57.632;11.962;2022-11-21T00:28:39;99613.81;;;19.79;38.98
13011;BME280;6786;57.632;11.962;2022-11-21T00:31:07;99618.50;;;19.85;38.84
13011;BME280;6786;57.632;11.962;2022-11-21T00:33:36;99617.88;;;19.83;38.96
13011;BME280;6786;57.632;11.962;2022-11-21T00:36:05;99608.97;;;19.83;38.80
13011;BME280;6786;57.632;11.962;2022-11-21T00:38:35;99620.22;;;19.86;38.85
13011;BME280;6786;57.632;11.962;2022-11-21T00:41:04;99612.34;;;19.85;38.90
13011;BME280;6786;57.632;11.962;2022-11-21T00:43:33;99604.13;;;19.86;38.85
13011;BME280;6786;57.632;11.962;2022-11-21T00:46:01;99608.81;;;19.84;39.02
13011;BME280;6786;57.632;11.962;2022-11-21T00:48:30;99597.06;;;19.85;38.85
13011;BME280;6786;57.632;11.962;2022-11-21T00:50:59;99604.13;;;19.86;38.82
13011;BME280;6786;57.632;11.962;2022-11-21T00:53:27;99598.75;;;19.86;38.80
13011;BME280;6786;57.632;11.962;2022-11-21T00:55:56;99597.06;;;19.85;39.04
13011;BME280;6786;57.632;11.962;2022-11-21T00:58:25;99588.19;;;19.85;38.88
13011;BME280;6786;57.632;11.962;2022-11-21T01:01:02;99589.03;;;19.85;38.72
13011;BME280;6786;57.632;11.962;2022-11-21T01:03:31;99562.41;;;19.76;38.82
13011;BME280;6786;57.632;11.962;2022-11-21T01:06:02;99574.78;;;19.85;38.84
13011;BME280;6786;57.632;11.962;2022-11-21T01:08:31;99555.16;;;19.76;38.88
13011;BME280;6786;57.632;11.962;2022-11-21T01:11:04;99558.53;;;19.78;38.66
13011;BME280;6786;57.632;11.962;2022-11-21T01:13:34;99564.06;;;19.85;38.66
13011;BME280;6786;57.632;11.962;2022-11-21T01:16:04;99563.22;;;19.84;38.78
13011;BME280;6786;57.632;11.962;2022-11-21T01:18:32;99554.50;;;19.82;38.82
13011;BME280;6786;57.632;11.962;2022-11-21T01:21:00;99558.72;;;19.85;38.91
13011;BME280;6786;57.632;11.962;2022-11-21T01:23:29;99557.84;;;19.84;38.87
13011;BME280;6786;57.632;11.962;2022-11-21T01:26:00;99551.66;;;19.84;38.84
13011;BME280;6786;57.632;11.962;2022-11-21T01:28:28;99555.19;;;19.84;38.74
13011;BME280;6786;57.632;11.962;2022-11-21T01:31:04;99538.25;;;19.84;38.74
13011;BME280;6786;57.632;11.962;2022-11-21T01:33:32;99546.28;;;19.84;38.85
13011;BME280;6786;57.632;11.962;2022-11-21T01:36:08;99540.91;;;19.84;38.65
13011;BME280;6786;57.632;11.962;2022-11-21T01:38:36;99496.22;;;19.60;38.81
13011;BME280;6786;57.632;11.962;2022-11-21T01:41:05;99540.91;;;19.84;38.86
13011;BME280;6786;57.632;11.962;2022-11-21T01:43:34;99503.25;;;19.61;38.89
13011;BME280;6786;57.632;11.962;2022-11-21T01:46:19;99543.44;;;19.85;38.60
13011;BME280;6786;57.632;11.962;2022-11-21T01:48:51;99541.78;;;19.84;38.82
13011;BME280;6786;57.632;11.962;2022-11-21T01:51:26;99538.06;;;19.85;38.80
13011;BME280;6786;57.632;11.962;2022-11-21T01:53:59;99526.38;;;19.78;38.64
13011;BME280;6786;57.632;11.962;2022-11-21T01:56:33;99530.03;;;19.85;38.65
13011;BME280;6786;57.632;11.962;2022-11-21T01:59:04;99535.41;;;19.85;38.80
13011;BME280;6786;57.632;11.962;2022-11-21T02:01:36;99532.06;;;19.83;38.78
13011;BME280;6786;57.632;11.962;2022-11-21T02:04:05;99524.03;;;19.83;38.81
13011;BME280;6786;57.632;11.962;2022-11-21T02:06:34;99525.69;;;19.84;38.71
13011;BME280;6786;57.632;11.962;2022-11-21T02:09:04;99523.00;;;19.84;38.74
13011;BME280;6786;57.632;11.962;2022-11-21T02:11:36;99524.84;;;19.84;38.76
13011;BME280;6786;57.632;11.962;2022-11-21T02:14:05;99519.47;;;19.84;38.67
13011;BME280;6786;57.632;11.962;2022-11-21T02:16:35;99514.13;;;19.84;38.72
13011;BME280;6786;57.632;11.962;2022-11-21T02:19:04;99514.13;;;19.84;38.84
13011;BME280;6786;57.632;11.962;2022-11-21T02:21:41;99518.66;;;19.83;38.69
13011;BME280;6786;57.632;11.962;2022-11-21T02:24:18;99509.09;;;19.81;38.81
13011;BME280;6786;57.632;11.962;2022-11-21T02:26:51;99519.47;;;19.84;38.73
13011;BME280;6786;57.632;11.962;2022-11-21T02:29:20;99520.50;;;19.83;38.71
13011;BME280;6786;57.632;11.962;2022-11-21T02:31:48;99524.84;;;19.84;38.89
13011;BME280;6786;57.632;11.962;2022-11-21T02:34:16;99514.28;;;19.82;38.69
13011;BME280;6786;57.632;11.962;2022-11-21T02:36:45;99511.44;;;19.84;38.73
13011;BME280;6786;57.632;11.962;2022-11-21T02:39:18;99512.28;;;19.84;38.80
13011;BME280;6786;57.632;11.962;2022-11-21T02:41:57;99508.59;;;19.85;38.55
13011;BME280;6786;57.632;11.962;2022-11-21T02:44:32;99504.25;;;19.84;38.65
13011;BME280;6786;57.632;11.962;2022-11-21T02:47:02;99501.56;;;19.84;38.81
13011;BME280;6786;57.632;11.962;2022-11-21T02:49:36;99491.84;;;19.83;38.66
13011;BME280;6786;57.632;11.962;2022-11-21T02:52:07;99498.88;;;19.84;38.69
13011;BME280;6786;57.632;11.962;2022-11-21T02:54:35;99492.66;;;19.84;38.75
13011;BME280;6786;57.632;11.962;2022-11-21T02:57:05;99488.16;;;19.84;38.72
13011;BME280;6786;57.632;11.962;2022-11-21T02:59:33;99489.97;;;19.84;38.81
13011;BME280;6786;57.632;11.962;2022-11-21T03:02:01;99486.47;;;19.83;38.58
13011;BME280;6786;57.632;11.962;2022-11-21T03:04:29;99482.78;;;19.84;38.59
13011;BME280;6786;57.632;11.962;2022-11-21T03:06:56;99482.78;;;19.84;38.68
13011;BME280;6786;57.632;11.962;2022-11-21T03:09:24;99482.78;;;19.84;38.63
13011;BME280;6786;57.632;11.962;2022-11-21T03:11:52;99480.09;;;19.84;38.68
13011;BME280;6786;57.632;11.962;2022-11-21T03:14:22;99476.41;;;19.85;38.73
13011;BME280;6786;57.632;11.962;2022-11-21T03:16:53;99467.56;;;19.85;38.60
13011;BME280;6786;57.632;11.962;2022-11-21T03:19:21;99479.09;;;19.85;38.62
13011;BME280;6786;57.632;11.962;2022-11-21T03:21:49;99472.75;;;19.86;38.72
13011;BME280;6786;57.632;11.962;2022-11-21T03:24:17;99474.56;;;19.86;38.74
13011;BME280;6786;57.632;11.962;2022-11-21T03:26:45;99457.63;;;19.85;38.61
13011;BME280;6786;57.632;11.962;2022-11-21T03:29:13;99478.09;;;19.86;38.60
13011;BME280;6786;57.632;11.962;2022-11-21T03:31:42;99468.38;;;19.85;38.72
13011;BME280;6786;57.632;11.962;2022-11-21T03:34:10;99473.72;;;19.85;38.63
13011;BME280;6786;57.632;11.962;2022-11-21T03:36:38;99472.06;;;19.84;38.62
13011;BME280;6786;57.632;11.962;2022-11-21T03:39:07;99472.91;;;19.85;38.63
13011;BME280;6786;57.632;11.962;2022-11-21T03:41:35;99470.41;;;19.83;38.75
13011;BME280;6786;57.632;11.962;2022-11-21T03:44:05;99472.06;;;19.84;38.68
13011;BME280;6786;57.632;11.962;2022-11-21T03:46:34;99472.06;;;19.84;38.70
13011;BME280;6786;57.632;11.962;2022-11-21T03:49:05;99459.34;;;19.86;38.63
13011;BME280;6786;57.632;11.962;2022-11-21T03:51:33;99463.00;;;19.85;38.77
13011;BME280;6786;57.632;11.962;2022-11-21T03:54:01;99453.97;;;19.86;38.43
13011;BME280;6786;57.632;11.962;2022-11-21T03:56:29;99454.78;;;19.87;38.54
13011;BME280;6786;57.632;11.962;2022-11-21T03:58:58;99453.97;;;19.86;38.50
13011;BME280;6786;57.632;11.962;2022-11-21T04:01:26;99448.59;;;19.86;38.50
13011;BME280;6786;57.632;11.962;2022-11-21T04:04:00;99446.91;;;19.85;38.63
13011;BME280;6786;57.632;11.962;2022-11-21T04:06:30;99454.97;;;19.85;38.57
13011;BME280;6786;57.632;11.962;2022-11-21T04:08:58;99463.00;;;19.85;38.54
13011;BME280;6786;57.632;11.962;2022-11-21T04:11:26;99449.59;;;19.85;38.62
13011;BME280;6786;57.632;11.962;2022-11-21T04:13:54;99451.28;;;19.86;38.68
13011;BME280;6786;57.632;11.962;2022-11-21T04:16:22;99448.59;;;19.86;38.52
13011;BME280;6786;57.632;11.962;2022-11-21T04:18:50;99436.19;;;19.85;38.73
13011;BME280;6786;57.632;11.962;2022-11-21T04:21:18;99441.56;;;19.85;38.54
13011;BME280;6786;57.632;11.962;2022-11-21T04:23:47;99443.25;;;19.86;38.58
13011;BME280;6786;57.632;11.962;2022-11-21T04:26:15;99437.88;;;19.86;38.59
13011;BME280;6786;57.632;11.962;2022-11-21T04:28:43;99438.69;;;19.87;38.57
13011;BME280;6786;57.632;11.962;2022-11-21T04:31:11;99437.88;;;19.86;38.51
13011;BME280;6786;57.632;11.962;2022-11-21T04:33:39;99440.56;;;19.86;38.53
13011;BME280;6786;57.632;11.962;2022-11-21T04:36:07;99432.53;;;19.86;38.68
13011;BME280;6786;57.632;11.962;2022-11-21T04:38:36;99440.56;;;19.86;38.54
13011;BME280;6786;57.632;11.962;2022-11-21T04:41:05;99429.84;;;19.86;38.64
13011;BME280;6786;57.632;11.962;2022-11-21T04:43:33;99418.44;;;19.84;38.59
13011;BME280;6786;57.632;11.962;2022-11-21T04:46:01;99421.78;;;19.86;38.56
13011;BME280;6786;57.632;11.962;2022-11-21T04:48:29;99427.97;;;19.87;38.56
13011;BME280;6786;57.632;11.962;2022-11-21T04:50:58;99425.47;;;19.85;38.48
13011;BME280;6786;57.632;11.962;2022-11-21T04:53:26;99423.47;;;19.87;38.64
13011;BME280;6786;57.632;11.962;2022-11-21T04:55:54;99423.47;;;19.87;38.56
13011;BME280;6786;57.632;11.962;2022-11-21T04:58:23;99425.13;;;19.88;38.61
13011;BME280;6786;57.632;11.962;2022-11-21T05:00:51;99421.44;;;19.89;38.52
13011;BME280;6786;57.632;11.962;2022-11-21T05:03:19;99425.97;;;19.89;38.60
13011;BME280;6786;57.632;11.962;2022-11-21T05:05:47;99418.94;;;19.88;38.55
13011;BME280;6786;57.632;11.962;2022-11-21T05:08:15;99419.75;;;19.88;38.58
13011;BME280;6786;57.632;11.962;2022-11-21T05:10:43;99418.09;;;19.87;38.53
13011;BME280;6786;57.632;11.962;2022-11-21T05:13:30;99423.47;;;19.87;38.56
13011;BME280;6786;57.632;11.962;2022-11-21T05:15:58;99413.09;;;19.84;38.49
13011;BME280;6786;57.632;11.962;2022-11-21T05:18:26;99411.06;;;19.86;38.56
13011;BME280;6786;57.632;11.962;2022-11-21T05:20:54;99412.75;;;19.87;38.53
13011;BME280;6786;57.632;11.962;2022-11-21T05:23:22;99416.44;;;19.86;38.60
13011;BME280;6786;57.632;11.962;2022-11-21T05:25:50;99421.78;;;19.86;38.57
13011;BME280;6786;57.632;11.962;2022-11-21T05:28:18;99413.09;;;19.84;38.62
13011;BME280;6786;57.632;11.962;2022-11-21T05:30:47;99416.44;;;19.86;38.60
13011;BME280;6786;57.632;11.962;2022-11-21T05:33:15;99411.06;;;19.86;38.60
13011;BME280;6786;57.632;11.962;2022-11-21T05:35:43;99407.53;;;19.86;38.64
13011;BME280;6786;57.632;11.962;2022-11-21T05:38:11;99415.41;;;19.87;38.65
13011;BME280;6786;57.632;11.962;2022-11-21T05:40:39;99415.41;;;19.87;38.61
13011;BME280;6786;57.632;11.962;2022-11-21T05:43:09;99407.53;;;19.86;38.57
13011;BME280;6786;57.632;11.962;2022-11-21T05:45:56;99402.00;;;19.87;38.60
13011;BME280;6786;57.632;11.962;2022-11-21T05:48:24;99408.56;;;19.85;38.77
13011;BME280;6786;57.632;11.962;2022-11-21T05:50:52;99414.75;;;19.85;38.57
13011;BME280;6786;57.632;11.962;2022-11-21T05:53:20;99414.75;;;19.85;38.60
13011;BME280;6786;57.632;11.962;2022-11-21T05:55:48;99409.38;;;19.85;38.66
13011;BME280;6786;57.632;11.962;2022-11-21T05:58:16;99409.38;;;19.85;38.72
13011;BME280;6786;57.632;11.962;2022-11-21T06:00:44;99421.78;;;19.86;38.53
13011;BME280;6786;57.632;11.962;2022-11-21T06:03:13;99420.09;;;19.85;38.54
13011;BME280;6786;57.632;11.962;2022-11-21T06:06:00;99422.63;;;19.87;38.50
13011;BME280;6786;57.632;11.962;2022-11-21T06:08:30;99406.41;;;19.80;38.56
13011;BME280;6786;57.632;11.962;2022-11-21T06:10:58;99417.25;;;19.87;38.56
13011;BME280;6786;57.632;11.962;2022-11-21T06:13:26;99418.44;;;19.84;38.60
13011;BME280;6786;57.632;11.962;2022-11-21T06:15:58;99419.94;;;19.87;38.58
13011;BME280;6786;57.632;11.962;2022-11-21T06:18:31;99423.47;;;19.87;38.63
13011;BME280;6786;57.632;11.962;2022-11-21T06:21:00;99419.13;;;19.86;38.77
13011;BME280;6786;57.632;11.962;2022-11-21T06:23:28;99425.47;;;19.85;38.68
13011;BME280;6786;57.632;11.962;2022-11-21T06:25:57;99423.63;;;19.86;38.60
13011;BME280;6786;57.632;11.962;2022-11-21T06:28:25;99430.81;;;19.85;38.54
13011;BME280;6786;57.632;11.962;2022-11-21T06:30:53;99431.69;;;19.86;38.55
13011;BME280;6786;57.632;11.962;2022-11-21T06:33:21;99422.97;;;19.84;38.59
13011;BME280;6786;57.632;11.962;2022-11-21T06:35:51;99432.53;;;19.86;38.72
13011;BME280;6786;57.632;11.962;2022-11-21T06:38:19;99427.50;;;19.83;38.57
13011;BME280;6786;57.632;11.962;2022-11-21T06:40:47;99437.88;;;19.86;38.58
13011;BME280;6786;57.632;11.962;2022-11-21T06:43:14;99437.88;;;19.86;38.63
13011;BME280;6786;57.632;11.962;2022-11-21T06:45:42;99437.88;;;19.86;38.60
13011;BME280;6786;57.632;11.962;2022-11-21T06:48:10;99433.69;;;19.84;38.63
13011;BME280;6786;57.632;11.962;2022-11-21T06:50:38;99441.56;;;19.85;38.64
13011;BME280;6786;57.632;11.962;2022-11-21T06:53:08;99444.41;;;19.84;38.50
13011;BME280;6786;57.632;11.962;2022-11-21T06:55:36;99452.28;;;19.85;38.68
13011;BME280;6786;57.632;11.962;2022-11-21T06:58:03;99444.22;;;19.85;38.73
13011;BME280;6786;57.632;11.962;2022-11-21T07:00:31;99451.28;;;19.86;38.57
13011;BME280;6786;57.632;11.962;2022-11-21T07:03:00;99443.25;;;19.86;38.61
13011;BME280;6786;57.632;11.962;2022-11-21T07:05:29;99452.28;;;19.85;38.54
13011;BME280;6786;57.632;11.962;2022-11-21T07:07:59;99463.00;;;19.85;38.61
13011;BME280;6786;57.632;11.962;2022-11-21T07:10:29;99460.31;;;19.85;38.59
13011;BME280;6786;57.632;11.962;2022-11-21T07:12:57;99462.00;;;19.86;38.58
13011;BME280;6786;57.632;11.962;2022-11-21T07:15:44;99468.38;;;19.85;38.50
13011;BME280;6786;57.632;11.962;2022-11-21T07:18:13;99474.56;;;19.86;38.53
13011;BME280;6786;57.632;11.962;2022-11-21T07:20:41;99472.75;;;19.86;38.72
13011;BME280;6786;57.632;11.962;2022-11-21T07:23:09;99479.09;;;19.85;38.54
13011;BME280;6786;57.632;11.962;2022-11-21T07:25:38;99481.13;;;19.83;38.72
13011;BME280;6786;57.632;11.962;2022-11-21T07:28:07;99487.13;;;19.85;38.68
13011;BME280;6786;57.632;11.962;2022-11-21T07:30:35;99486.16;;;19.86;38.71
13011;BME280;6786;57.632;11.962;2022-11-21T07:33:05;99475.75;;;19.83;38.58
13011;BME280;6786;57.632;11.962;2022-11-21T07:35:34;99483.47;;;19.86;38.67
13011;BME280;6786;57.632;11.962;2022-11-21T07:38:03;99477.44;;;19.84;38.61
13011;BME280;6786;57.632;11.962;2022-11-21T07:40:31;99479.75;;;19.87;38.67
13011;BME280;6786;57.632;11.962;2022-11-21T07:43:02;99482.44;;;19.87;38.58
13011;BME280;6786;57.632;11.962;2022-11-21T07:45:36;99481.59;;;19.87;38.63
13011;BME280;6786;57.632;11.962;2022-11-21T07:48:05;99478.09;;;19.86;38.50
13011;BME280;6786;57.632;11.962;2022-11-21T07:50:34;99486.16;;;19.86;38.56
13011;BME280;6786;57.632;11.962;2022-11-21T07:53:03;99489.81;;;19.85;38.56
13011;BME280;6786;57.632;11.962;2022-11-21T07:55:32;99487.81;;;19.87;38.57
13011;BME280;6786;57.632;11.962;2022-11-21T07:58:08;99496.88;;;19.86;38.55
13011;BME280;6786;57.632;11.962;2022-11-21T08:00:38;99494.19;;;19.86;38.54
13011;BME280;6786;57.632;11.962;2022-11-21T08:03:09;99496.88;;;19.86;38.67
13011;BME280;6786;57.632;11.962;2022-11-21T08:05:39;99507.59;;;19.86;38.52
13011;BME280;6786;57.632;11.962;2022-11-21T08:08:08;99494.53;;;19.83;38.59
13011;BME280;6786;57.632;11.962;2022-11-21T08:10:37;99494.53;;;19.83;38.59
13011;BME280;6786;57.632;11.962;2022-11-21T08:13:07;99507.59;;;19.86;38.75
13011;BME280;6786;57.632;11.962;2022-11-21T08:15:36;99512.97;;;19.86;38.52
13011;BME280;6786;57.632;11.962;2022-11-21T08:18:08;99512.97;;;19.86;38.61
13011;BME280;6786;57.632;11.962;2022-11-21T08:20:36;99514.78;;;19.86;38.68
13011;BME280;6786;57.632;11.962;2022-11-21T08:23:04;99507.59;;;19.86;38.57
13011;BME280;6786;57.632;11.962;2022-11-21T08:25:35;99511.25;;;19.85;38.57
13011;BME280;6786;57.632;11.962;2022-11-21T08:28:03;99511.25;;;19.85;38.54
13011;BME280;6786;57.632;11.962;2022-11-21T08:30:34;99479.78;;;19.63;38.49
13011;BME280;6786;57.632;11.962;2022-11-21T08:33:03;99511.25;;;19.85;38.57
13011;BME280;6786;57.632;11.962;2022-11-21T08:35:31;99522.00;;;19.85;38.50
13011;BME280;6786;57.632;11.962;2022-11-21T08:38:00;99507.59;;;19.86;38.59
13011;BME280;6786;57.632;11.962;2022-11-21T08:40:30;99502.22;;;19.86;38.57
13011;BME280;6786;57.632;11.962;2022-11-21T08:42:58;99474.44;;;19.63;38.57
13011;BME280;6786;57.632;11.962;2022-11-21T08:45:27;99472.59;;;19.64;38.54
13011;BME280;6786;57.632;11.962;2022-11-21T08:47:57;99506.25;;;19.82;38.66
13011;BME280;6786;57.632;11.962;2022-11-21T08:50:25;99518.31;;;19.86;38.59
13011;BME280;6786;57.632;11.962;2022-11-21T08:52:58;99520.00;;;19.87;38.51
13011;BME280;6786;57.632;11.962;2022-11-21T08:55:26;99513.78;;;19.87;38.49
13011;BME280;6786;57.632;11.962;2022-11-21T08:57:54;99514.63;;;19.87;38.56
13011;BME280;6786;57.632;11.962;2022-11-21T09:00:22;99516.63;;;19.85;38.53
13011;BME280;6786;57.632;11.962;2022-11-21T09:02:50;99526.19;;;19.88;38.46
13011;BME280;6786;57.632;11.962;2022-11-21T09:05:20;99524.34;;;19.88;38.59
13011;BME280;6786;57.632;11.962;2022-11-21T09:07:54;99529.69;;;19.88;38.45
13011;BME280;6786;57.632;11.962;2022-11-21T09:10:23;99530.72;;;19.87;38.49
13011;BME280;6786;57.632;11.962;2022-11-21T09:12:51;99534.41;;;19.86;38.44
13011;BME280;6786;57.632;11.962;2022-11-21T09:15:19;99535.22;;;19.87;38.56
13011;BME280;6786;57.632;11.962;2022-11-21T09:18:04;99545.13;;;19.86;38.58
13011;BME280;6786;57.632;11.962;2022-11-21T09:20:38;99545.13;;;19.86;38.60
13011;BME280;6786;57.632;11.962;2022-11-21T09:23:07;99550.50;;;19.86;38.49
13011;BME280;6786;57.632;11.962;2022-11-21T09:25:36;99554.16;;;19.85;38.50
13011;BME280;6786;57.632;11.962;2022-11-21T09:28:06;99548.81;;;19.85;38.45
13011;BME280;6786;57.632;11.962;2022-11-21T09:30:34;99555.84;;;19.86;38.55
13011;BME280;6786;57.632;11.962;2022-11-21T09:33:04;99555.84;;;19.86;38.58
13011;BME280;6786;57.632;11.962;2022-11-21T09:35:32;99555.84;;;19.86;38.50
13011;BME280;6786;57.632;11.962;2022-11-21T09:38:02;99548.81;;;19.85;38.54
13011;BME280;6786;57.632;11.962;2022-11-21T09:40:31;99557.84;;;19.84;38.49
13011;BME280;6786;57.632;11.962;2022-11-21T09:43:17;99550.84;;;19.83;38.42
13011;BME280;6786;57.632;11.962;2022-11-21T09:45:51;99531.06;;;19.68;38.51
13011;BME280;6786;57.632;11.962;2022-11-21T09:48:28;99560.38;;;19.86;38.50
13011;BME280;6786;57.632;11.962;2022-11-21T09:50:59;99559.53;;;19.85;38.55
13011;BME280;6786;57.632;11.962;2022-11-21T09:53:32;99563.22;;;19.84;38.41
13011;BME280;6786;57.632;11.962;2022-11-21T09:56:04;99571.94;;;19.86;38.47
13011;BME280;6786;57.632;11.962;2022-11-21T09:58:37;99570.25;;;19.85;38.49
13011;BME280;6786;57.632;11.962;2022-11-21T10:01:09;99571.94;;;19.86;38.41
13011;BME280;6786;57.632;11.962;2022-11-21T10:03:41;99566.59;;;19.86;38.49
13011;BME280;6786;57.632;11.962;2022-11-21T10:06:16;99571.09;;;19.86;38.41
13011;BME280;6786;57.632;11.962;2022-11-21T10:08:54;99571.94;;;19.86;38.38
13011;BME280;6786;57.632;11.962;2022-11-21T10:11:33;99575.63;;;19.85;38.36
13011;BME280;6786;57.632;11.962;2022-11-21T10:14:38;99573.94;;;19.84;38.40
13011;BME280;6786;57.632;11.962;2022-11-21T10:17:16;99580.16;;;19.85;38.49
13011;BME280;6786;57.632;11.962;2022-11-21T10:20:11;99577.66;;;19.83;38.37
13011;BME280;6786;57.632;11.962;2022-11-21T10:22:58;99584.00;;;19.82;38.42
13011;BME280;6786;57.632;11.962;2022-11-21T10:25:35;99535.41;;;19.61;38.33
13011;BME280;6786;57.632;11.962;2022-11-21T10:28:09;99581.31;;;19.82;38.47
13011;BME280;6786;57.632;11.962;2022-11-21T10:30:43;99581.31;;;19.82;38.47
13011;BME280;6786;57.632;11.962;2022-11-21T10:33:16;99581.31;;;19.82;38.57
13011;BME280;6786;57.632;11.962;2022-11-21T10:35:46;99572.28;;;19.83;38.43
13011;BME280;6786;57.632;11.962;2022-11-21T10:38:20;99577.66;;;19.83;38.51
13011;BME280;6786;57.632;11.962;2022-11-21T10:40:53;99581.31;;;19.82;38.49
13011;BME280;6786;57.632;11.962;2022-11-21T10:43:31;99580.31;;;19.83;38.41
13011;BME280;6786;57.632;11.962;2022-11-21T10:46:29;99571.44;;;19.83;38.59
13011;BME280;6786;57.632;11.962;2022-11-21T10:48:59;99572.63;;;19.80;38.52
13011;BME280;6786;57.632;11.962;2022-11-21T10:51:43;99578.47;;;19.84;38.24
13011;BME280;6786;57.632;11.962;2022-11-21T10:54:13;99575.94;;;19.82;38.51
13011;BME280;6786;57.632;11.962;2022-11-21T10:57:06;99583.00;;;19.83;38.47
13011;BME280;6786;57.632;11.962;2022-11-21T10:59:38;99592.03;;;19.82;38.31
13011;BME280;6786;57.632;11.962;2022-11-21T11:02:22;99589.19;;;19.84;38.24
13011;BME280;6786;57.632;11.962;2022-11-21T11:05:18;99587.53;;;19.83;38.10
13011;BME280;6786;57.632;11.962;2022-11-21T11:08:01;99590.38;;;19.81;38.39
13011;BME280;6786;57.632;11.962;2022-11-21T11:10:30;99586.66;;;19.82;38.53
13011;BME280;6786;57.632;11.962;2022-11-21T11:13:00;99595.56;;;19.83;38.45
13011;BME280;6786;57.632;11.962;2022-11-21T11:16:14;99592.03;;;19.82;38.41
13011;BME280;6786;57.632;11.962;2022-11-21T11:18:46;99593.72;;;19.83;38.43
13011;BME280;6786;57.632;11.962;2022-11-21T11:21:17;99599.09;;;19.83;38.54
13011;BME280;6786;57.632;11.962;2022-11-21T11:23:47;99581.97;;;19.76;38.63
13011;BME280;6786;57.632;11.962;2022-11-21T11:26:21;99585.16;;;19.80;38.39
13011;BME280;6786;57.632;11.962;2022-11-21T11:28:52;99592.88;;;19.83;38.41
13011;BME280;6786;57.632;11.962;2022-11-21T11:31:22;99599.09;;;19.83;38.43
13011;BME280;6786;57.632;11.962;2022-11-21T11:33:52;99599.09;;;19.83;38.46
13011;BME280;6786;57.632;11.962;2022-11-21T11:36:33;99592.03;;;19.82;38.41
13011;BME280;6786;57.632;11.962;2022-11-21T11:39:09;99596.41;;;19.83;38.34
13011;BME280;6786;57.632;11.962;2022-11-21T11:41:54;99599.44;;;19.80;38.45
13011;BME280;6786;57.632;11.962;2022-11-21T11:44:55;99597.41;;;19.82;38.33
13011;BME280;6786;57.632;11.962;2022-11-21T11:47:48;99601.09;;;19.81;38.34
13011;BME280;6786;57.632;11.962;2022-11-21T11:50:23;99590.38;;;19.81;38.60
13011;BME280;6786;57.632;11.962;2022-11-21T11:53:01;99594.88;;;19.81;38.38
13011;BME280;6786;57.632;11.962;2022-11-21T11:55:35;99602.75;;;19.82;38.41
13011;BME280;6786;57.632;11.962;2022-11-21T11:58:12;99602.75;;;19.82;38.49
13011;BME280;6786;57.632;11.962;2022-11-21T12:00:48;99604.78;;;19.80;38.31
13011;BME280;6786;57.632;11.962;2022-11-21T12:03:22;99587.00;;;19.79;38.62
13011;BME280;6786;57.632;11.962;2022-11-21T12:06:00;99601.09;;;19.81;38.34
13011;BME280;6786;57.632;11.962;2022-11-21T12:08:43;99594.06;;;19.80;38.35
13011;BME280;6786;57.632;11.962;2022-11-21T12:11:21;99593.06;;;19.81;38.44
13011;BME280;6786;57.632;11.962;2022-11-21T12:14:14;99599.44;;;19.80;38.33
13011;BME280;6786;57.632;11.962;2022-11-21T12:17:09;99577.63;;;19.67;38.29
13011;BME280;6786;57.632;11.962;2022-11-21T12:19:38;99592.03;;;19.82;38.35
13011;BME280;6786;57.632;11.962;2022-11-21T12:22:08;99593.22;;;19.80;38.48
13011;BME280;6786;57.632;11.962;2022-11-21T12:24:38;99602.75;;;19.82;38.29
13011;BME280;6786;57.632;11.962;2022-11-21T12:27:20;99602.75;;;19.82;38.28
13011;BME280;6786;57.632;11.962;2022-11-21T12:30:02;99595.72;;;19.81;38.38
13011;BME280;6786;57.632;11.962;2022-11-21T12:32:47;99608.13;;;19.82;38.20
13011;BME280;6786;57.632;11.962;2022-11-21T12:35:26;99594.06;;;19.80;38.37
13011;BME280;6786;57.632;11.962;2022-11-21T12:38:11;99611.81;;;19.81;38.25
13011;BME280;6786;57.632;11.962;2022-11-21T12:40:48;99611.81;;;19.81;38.32
13011;BME280;6786;57.632;11.962;2022-11-21T12:43:23;99606.44;;;19.81;38.34
13011;BME280;6786;57.632;11.962;2022-11-21T12:46:01;99610.81;;;19.82;38.40
13011;BME280;6786;57.632;11.962;2022-11-21T12:48:44;99610.81;;;19.82;38.24
13011;BME280;6786;57.632;11.962;2022-11-21T12:52:02;99599.44;;;19.80;38.05
13011;BME280;6786;57.632;11.962;2022-11-21T12:55:04;99614.34;;;19.83;38.08
13011;BME280;6786;57.632;11.962;2022-11-21T12:57:49;99611.81;;;19.81;38.23
13011;BME280;6786;57.632;11.962;2022-11-21T13:00:28;99611.81;;;19.81;38.28
13011;BME280;6786;57.632;11.962;2022-11-21T13:03:21;99614.34;;;19.83;38.08
13011;BME280;6786;57.632;11.962;2022-11-21T13:05:55;99617.19;;;19.81;38.32
13011;BME280;6786;57.632;11.962;2022-11-21T13:08:26;99616.16;;;19.82;38.32
13011;BME280;6786;57.632;11.962;2022-11-21T13:11:02;99611.81;;;19.81;38.37
13011;BME280;6786;57.632;11.962;2022-11-21T13:13:58;99611.81;;;19.81;38.25
13011;BME280;6786;57.632;11.962;2022-11-21T13:16:30;99611.81;;;19.81;38.29
13011;BME280;6786;57.632;11.962;2022-11-21T13:19:20;99615.50;;;19.80;38.36
13011;BME280;6786;57.632;11.962;2022-11-21T13:21:52;99580.31;;;19.59;38.40
13011;BME280;6786;57.632;11.962;2022-11-21T13:24:55;99620.88;;;19.80;37.94
13011;BME280;6786;57.632;11.962;2022-11-21T13:27:27;99615.50;;;19.80;38.28